Time;durP1;ratioP1;P1;durP2;ratioP2;P2;SDS_P1;SDS_P2;PMS_P1;PMS_P2;Temp;Humidity;BMP_temperature;BMP_pressure;BME280_temperature;BME280_humidity;BME280_pressure;Samples;Min_cycle;Max_cycle;Signal;HPM_P1;HPM_P2
2021/10/11 00:01:50;;;;;;;140.77;69.45;;;14.30;99.90;;;;;;5062052;28;20025;-75
2021/10/11 00:04:15;;;;;;;141.77;67.43;;;14.30;99.90;;;;;;5058276;28;20028;-75
2021/10/11 00:06:41;;;;;;;127.85;64.22;;;14.30;99.90;;;;;;5057506;28;20480;-76
2021/10/11 00:09:07;;;;;;;137.18;62.97;;;14.30;99.90;;;;;;5057057;28;20044;-75
2021/10/11 00:11:33;;;;;;;129.45;62.78;;;14.30;99.90;;;;;;5065386;28;20039;-76
2021/10/11 00:13:59;;;;;;;192.05;73.45;;;14.40;99.90;;;;;;5060943;28;20044;-76
2021/10/11 00:16:25;;;;;;;166.50;65.95;;;14.30;99.90;;;;;;5055573;28;20057;-75
2021/10/11 00:18:50;;;;;;;118.82;54.75;;;14.40;99.90;;;;;;5062197;28;20079;-75
2021/10/11 00:21:16;;;;;;;121.15;56.22;;;14.30;99.90;;;;;;5060918;28;20067;-75
2021/10/11 00:23:44;;;;;;;103.15;48.70;;;14.40;99.90;;;;;;5064940;28;20031;-75
2021/10/11 00:26:10;;;;;;;126.55;58.83;;;14.30;99.90;;;;;;5063756;28;20477;-76
2021/10/11 00:28:36;;;;;;;115.97;54.80;;;14.40;99.90;;;;;;5065582;28;20041;-75
2021/10/11 00:31:01;;;;;;;116.15;54.25;;;14.40;99.90;;;;;;5059785;28;20025;-75
2021/10/11 00:33:27;;;;;;;123.47;53.40;;;14.50;99.90;;;;;;5061852;28;20029;-75
2021/10/11 00:35:52;;;;;;;108.80;51.35;;;14.50;99.90;;;;;;5060905;28;20043;-75
2021/10/11 00:38:18;;;;;;;111.95;52.58;;;14.50;99.90;;;;;;5061957;28;20025;-75
2021/10/11 00:40:44;;;;;;;99.72;48.85;;;14.50;99.90;;;;;;5063470;28;20063;-75
2021/10/11 00:43:09;;;;;;;104.22;48.88;;;14.50;99.90;;;;;;5064899;28;20021;-75
2021/10/11 00:45:35;;;;;;;97.13;47.55;;;14.50;99.90;;;;;;5065183;28;20030;-75
2021/10/11 00:48:00;;;;;;;105.88;47.92;;;14.50;99.90;;;;;;5054773;28;20044;-75
2021/10/11 00:50:26;;;;;;;82.85;39.90;;;14.50;99.90;;;;;;5058401;28;20114;-75
2021/10/11 00:52:52;;;;;;;87.70;42.80;;;14.50;99.90;;;;;;5057050;28;20029;-75
2021/10/11 00:55:18;;;;;;;98.60;48.50;;;14.60;99.90;;;;;;5061894;28;20024;-75
2021/10/11 00:57:43;;;;;;;93.38;44.58;;;14.60;99.90;;;;;;5058103;28;20024;-75
2021/10/11 01:00:09;;;;;;;105.63;48.70;;;14.60;99.90;;;;;;5062306;28;20033;-75
2021/10/11 01:02:35;;;;;;;97.30;44.95;;;14.60;99.90;;;;;;5062926;28;20033;-75
2021/10/11 01:05:01;;;;;;;93.82;42.60;;;14.70;99.90;;;;;;5059102;28;20047;-74
2021/10/11 01:07:27;;;;;;;93.63;44.58;;;14.70;99.90;;;;;;5061208;28;20032;-75
2021/10/11 01:09:52;;;;;;;113.53;50.20;;;14.60;99.90;;;;;;5063023;28;20401;-75
2021/10/11 01:12:18;;;;;;;111.35;48.28;;;14.60;99.90;;;;;;5066077;28;20376;-74
2021/10/11 01:14:44;;;;;;;102.15;45.55;;;14.70;99.90;;;;;;5061243;28;20033;-75
2021/10/11 01:17:10;;;;;;;97.65;42.80;;;14.60;99.90;;;;;;5061695;28;20017;-74
2021/10/11 01:19:38;;;;;;;102.45;45.25;;;14.70;99.90;;;;;;5062226;28;20603;-75
2021/10/11 01:22:04;;;;;;;100.53;46.38;;;14.70;99.90;;;;;;5061143;28;20032;-75
2021/10/11 01:24:30;;;;;;;84.38;40.17;;;14.70;99.90;;;;;;5062609;28;20527;-74
2021/10/11 01:26:56;;;;;;;109.60;44.85;;;14.70;99.90;;;;;;5067852;28;20135;-75
2021/10/11 01:29:22;;;;;;;80.28;36.60;;;14.70;99.90;;;;;;5056518;28;20036;-75
2021/10/11 01:31:49;;;;;;;88.63;39.38;;;14.70;99.90;;;;;;5060590;28;20016;-74
2021/10/11 01:34:15;;;;;;;78.38;38.33;;;14.70;99.90;;;;;;5058888;28;20458;-75
2021/10/11 01:36:41;;;;;;;85.15;40.25;;;14.60;99.90;;;;;;5063730;28;20358;-75
2021/10/11 01:39:09;;;;;;;86.57;39.00;;;14.70;99.90;;;;;;5063240;28;20044;-74
2021/10/11 01:41:36;;;;;;;74.93;38.47;;;14.60;99.90;;;;;;5055406;28;20017;-75
2021/10/11 01:44:02;;;;;;;99.32;41.20;;;14.60;99.90;;;;;;5062619;28;20115;-74
2021/10/11 01:46:27;;;;;;;83.75;36.88;;;14.60;99.90;;;;;;5065399;28;20151;-75
2021/10/11 01:48:53;;;;;;;94.10;38.88;;;14.60;99.90;;;;;;5067288;28;20087;-75
2021/10/11 01:51:19;;;;;;;78.40;35.97;;;14.60;99.90;;;;;;5065149;28;20485;-75
2021/10/11 01:53:45;;;;;;;88.38;38.33;;;14.60;99.90;;;;;;5068466;28;20481;-74
2021/10/11 01:56:11;;;;;;;76.60;33.80;;;14.60;99.90;;;;;;5065129;28;20024;-74
2021/10/11 01:58:37;;;;;;;60.25;30.70;;;14.60;99.90;;;;;;5061766;28;20434;-74
2021/10/11 02:01:02;;;;;;;67.05;31.98;;;14.60;99.90;;;;;;5068489;28;20524;-75
2021/10/11 02:03:28;;;;;;;92.97;35.08;;;14.60;99.90;;;;;;5059259;28;20249;-74
2021/10/11 02:05:54;;;;;;;73.57;30.60;;;14.60;99.90;;;;;;5068929;28;20024;-75
2021/10/11 02:08:19;;;;;;;72.95;33.10;;;14.50;99.90;;;;;;5068123;28;20036;-75
2021/10/11 02:10:45;;;;;;;66.55;29.05;;;14.60;99.90;;;;;;5063489;28;20450;-75
2021/10/11 02:13:10;;;;;;;80.85;30.00;;;14.60;99.90;;;;;;5056835;28;20107;-75
2021/10/11 02:15:36;;;;;;;61.92;27.35;;;14.50;99.90;;;;;;5063321;28;20488;-74
2021/10/11 02:18:02;;;;;;;72.00;29.17;;;14.60;99.90;;;;;;5065732;28;20024;-76
2021/10/11 02:20:27;;;;;;;73.55;28.80;;;14.60;99.90;;;;;;5066616;28;20028;-74
2021/10/11 02:22:53;;;;;;;60.47;24.95;;;14.60;99.90;;;;;;5065569;28;20028;-74
2021/10/11 02:25:19;;;;;;;72.82;29.23;;;14.60;99.90;;;;;;5068684;28;20546;-74
2021/10/11 02:27:45;;;;;;;59.15;25.27;;;14.60;99.90;;;;;;5065425;28;20037;-75
2021/10/11 02:30:11;;;;;;;59.92;27.10;;;14.60;99.90;;;;;;5064421;28;20393;-74
2021/10/11 02:32:38;;;;;;;52.60;24.33;;;14.60;99.90;;;;;;5068035;28;20366;-75
2021/10/11 02:35:07;;;;;;;65.35;27.67;;;14.60;99.90;;;;;;5064792;28;20145;-74
2021/10/11 02:37:33;;;;;;;60.60;27.60;;;14.60;99.90;;;;;;5071018;28;20017;-74
2021/10/11 02:39:59;;;;;;;69.80;29.65;;;14.60;99.90;;;;;;5060336;28;20458;-74
2021/10/11 02:42:25;;;;;;;76.22;28.88;;;14.60;99.90;;;;;;5073507;28;20051;-74
2021/10/11 02:44:51;;;;;;;82.32;29.05;;;14.60;99.90;;;;;;5067945;28;20645;-74
2021/10/11 02:47:16;;;;;;;68.43;27.75;;;14.60;99.90;;;;;;5065819;28;20057;-74
2021/10/11 02:49:42;;;;;;;73.07;27.52;;;14.60;99.90;;;;;;5064745;28;20090;-74
2021/10/11 02:52:08;;;;;;;69.43;27.35;;;14.60;99.90;;;;;;5064285;28;20021;-74
2021/10/11 02:54:34;;;;;;;67.50;25.88;;;14.60;99.90;;;;;;5064133;28;20416;-74
2021/10/11 02:57:00;;;;;;;71.80;24.75;;;14.60;99.90;;;;;;5074365;28;20479;-75
2021/10/11 02:59:25;;;;;;;61.17;24.85;;;14.60;99.90;;;;;;5058613;28;20063;-74
2021/10/11 03:01:51;;;;;;;46.70;22.38;;;14.60;99.90;;;;;;5070536;28;20047;-74
2021/10/11 03:04:16;;;;;;;43.55;21.13;;;14.60;99.90;;;;;;5065709;28;20043;-74
2021/10/11 03:06:42;;;;;;;70.28;25.85;;;14.60;99.90;;;;;;5062058;28;20021;-74
2021/10/11 03:09:08;;;;;;;51.13;23.52;;;14.60;99.90;;;;;;5064238;28;20115;-74
2021/10/11 03:11:34;;;;;;;48.58;21.38;;;14.60;99.90;;;;;;5065925;28;20086;-74
2021/10/11 03:13:59;;;;;;;43.10;20.35;;;14.60;99.90;;;;;;5059202;28;20469;-74
2021/10/11 03:16:25;;;;;;;45.72;21.83;;;14.60;99.90;;;;;;5064182;28;20380;-74
2021/10/11 03:18:51;;;;;;;48.40;22.55;;;14.60;99.90;;;;;;5065360;28;20472;-74
2021/10/11 03:21:18;;;;;;;34.08;17.63;;;14.50;99.90;;;;;;5061673;28;20021;-75
2021/10/11 03:23:48;;;;;;;45.55;18.98;;;14.60;99.90;;;;;;5060031;28;20051;-74
2021/10/11 03:26:14;;;;;;;51.50;19.52;;;14.50;99.90;;;;;;5068933;28;20111;-74
2021/10/11 03:28:40;;;;;;;42.80;18.73;;;14.50;99.90;;;;;;5062672;28;20473;-74
2021/10/11 03:31:06;;;;;;;45.33;19.45;;;14.50;99.90;;;;;;5067183;28;20123;-74
2021/10/11 03:33:31;;;;;;;42.22;19.08;;;14.50;99.90;;;;;;5059373;28;20028;-74
2021/10/11 03:35:57;;;;;;;32.15;16.60;;;14.50;99.90;;;;;;5066806;28;20032;-75
2021/10/11 03:38:22;;;;;;;43.75;17.75;;;14.50;99.90;;;;;;5063476;28;20073;-74
2021/10/11 03:40:48;;;;;;;42.28;17.02;;;14.50;99.90;;;;;;5059737;28;20028;-74
2021/10/11 03:43:14;;;;;;;34.67;14.95;;;14.50;99.90;;;;;;5070160;28;20507;-74
2021/10/11 03:45:40;;;;;;;36.38;15.48;;;14.50;99.90;;;;;;5068549;28;20086;-74
2021/10/11 03:48:05;;;;;;;43.78;18.38;;;14.50;99.90;;;;;;5062079;28;20029;-74
2021/10/11 03:50:31;;;;;;;34.97;16.27;;;14.50;99.90;;;;;;5068039;28;20040;-74
2021/10/11 03:52:56;;;;;;;40.60;15.57;;;14.50;99.90;;;;;;5061874;28;20579;-74
2021/10/11 03:55:22;;;;;;;29.13;14.13;;;14.40;99.90;;;;;;5070151;28;20029;-74
2021/10/11 03:57:48;;;;;;;36.13;14.15;;;14.40;99.90;;;;;;5058552;28;20496;-74
2021/10/11 04:00:14;;;;;;;30.70;14.38;;;14.40;99.90;;;;;;5068617;28;20020;-74
2021/10/11 04:02:40;;;;;;;33.85;14.32;;;14.40;99.90;;;;;;5067667;28;20480;-74
2021/10/11 04:05:07;;;;;;;31.23;13.35;;;14.40;99.90;;;;;;5061095;28;20071;-74
2021/10/11 04:07:33;;;;;;;31.05;13.90;;;14.40;99.90;;;;;;5071074;28;20021;-74
2021/10/11 04:10:02;;;;;;;29.85;13.77;;;14.40;99.90;;;;;;5069941;28;20362;-74
2021/10/11 04:12:38;;;;;;;30.25;12.95;;;14.40;99.90;;;;;;5069434;28;20083;-74
2021/10/11 04:15:06;;;;;;;26.50;13.48;;;14.40;99.90;;;;;;5060192;28;20420;-74
2021/10/11 04:17:38;;;;;;;28.52;11.93;;;14.40;99.90;;;;;;5070364;28;20032;-74
2021/10/11 04:20:06;;;;;;;25.20;11.85;;;14.40;99.90;;;;;;5062372;28;20028;-74
2021/10/11 04:22:32;;;;;;;29.48;12.02;;;14.30;99.90;;;;;;5065891;28;20473;-74
2021/10/11 04:24:58;;;;;;;28.45;11.90;;;14.30;99.90;;;;;;5062029;28;20430;-74
2021/10/11 04:27:24;;;;;;;27.67;11.18;;;14.40;99.90;;;;;;5066176;28;20033;-74
2021/10/11 04:29:49;;;;;;;22.90;10.80;;;14.30;99.90;;;;;;5066792;28;20086;-74
2021/10/11 04:32:15;;;;;;;28.92;10.95;;;14.30;99.90;;;;;;5065004;28;20032;-74
2021/10/11 04:34:40;;;;;;;25.67;10.50;;;14.30;99.90;;;;;;5064567;28;20075;-74
2021/10/11 04:37:06;;;;;;;21.85;9.38;;;14.30;99.90;;;;;;5064618;28;20029;-74
2021/10/11 04:39:32;;;;;;;30.70;10.80;;;14.30;99.90;;;;;;5061407;28;20024;-74
2021/10/11 04:41:57;;;;;;;22.17;10.65;;;14.30;99.90;;;;;;5062125;28;20025;-74
2021/10/11 04:44:23;;;;;;;20.15;9.57;;;14.30;99.90;;;;;;5067951;28;20472;-74
2021/10/11 04:46:49;;;;;;;19.40;9.88;;;14.30;99.90;;;;;;5062369;28;20035;-75
2021/10/11 04:49:14;;;;;;;22.95;10.00;;;14.30;99.90;;;;;;5057185;28;20033;-74
2021/10/11 04:51:40;;;;;;;23.38;9.50;;;14.20;99.90;;;;;;5059099;28;20021;-74
2021/10/11 04:54:06;;;;;;;21.20;8.68;;;14.20;99.90;;;;;;5066948;28;20153;-74
2021/10/11 04:56:31;;;;;;;20.65;9.27;;;14.20;99.90;;;;;;5057719;28;20024;-74
2021/10/11 04:58:57;;;;;;;24.27;9.68;;;14.20;99.90;;;;;;5065267;28;20033;-74
2021/10/11 05:01:22;;;;;;;21.00;9.35;;;14.20;99.90;;;;;;5066783;28;20044;-74
2021/10/11 05:03:48;;;;;;;19.13;8.25;;;14.20;99.90;;;;;;5069710;28;20115;-74
2021/10/11 05:06:14;;;;;;;19.13;8.88;;;14.10;99.90;;;;;;5058561;28;20036;-74
2021/10/11 05:08:40;;;;;;;21.80;9.82;;;14.10;99.90;;;;;;5062423;28;20489;-74
2021/10/11 05:11:05;;;;;;;19.65;8.70;;;14.10;99.90;;;;;;5065636;28;20389;-74
2021/10/11 05:13:31;;;;;;;17.58;8.05;;;14.10;99.90;;;;;;5059601;28;20111;-74
2021/10/11 05:15:58;;;;;;;17.73;7.85;;;14.00;99.90;;;;;;5065904;28;20078;-74
2021/10/11 05:18:24;;;;;;;26.75;8.93;;;14.00;99.90;;;;;;5059740;28;20027;-74
2021/10/11 05:20:50;;;;;;;15.65;7.05;;;13.90;99.90;;;;;;5062663;28;20016;-74
2021/10/11 05:23:19;;;;;;;19.65;7.85;;;13.90;99.90;;;;;;5067251;28;20103;-74
2021/10/11 05:25:45;;;;;;;18.52;7.63;;;13.90;99.90;;;;;;5061041;28;20108;-74
2021/10/11 05:28:10;;;;;;;17.10;6.82;;;13.90;99.90;;;;;;5061662;28;20115;-74
2021/10/11 05:30:40;;;;;;;17.38;7.32;;;13.80;99.90;;;;;;5060025;28;20560;-74
2021/10/11 05:33:07;;;;;;;17.70;7.63;;;13.80;99.90;;;;;;5061095;28;20028;-74
2021/10/11 05:35:33;;;;;;;15.00;7.43;;;13.80;99.90;;;;;;5058924;28;20024;-74
2021/10/11 05:37:58;;;;;;;14.07;7.82;;;13.70;99.90;;;;;;5064248;28;20032;-74
2021/10/11 05:40:24;;;;;;;23.10;7.93;;;13.70;99.90;;;;;;5063643;28;20032;-74
2021/10/11 05:42:50;;;;;;;25.73;8.82;;;13.70;99.90;;;;;;5067940;28;20044;-74
2021/10/11 05:45:15;;;;;;;22.85;9.18;;;13.70;99.90;;;;;;5062408;28;20031;-74
2021/10/11 05:47:41;;;;;;;19.15;8.18;;;13.70;99.90;;;;;;5060725;28;20039;-74
2021/10/11 05:50:09;;;;;;;18.42;7.88;;;13.70;99.90;;;;;;5061219;28;20481;-74
2021/10/11 05:52:35;;;;;;;17.73;7.45;;;13.70;99.90;;;;;;5059125;28;20021;-74
2021/10/11 05:55:01;;;;;;;19.25;7.72;;;13.60;99.90;;;;;;5065329;28;20056;-74
2021/10/11 05:57:26;;;;;;;16.10;7.35;;;13.60;99.90;;;;;;5065725;28;20052;-75
2021/10/11 05:59:52;;;;;;;14.25;7.25;;;13.60;99.90;;;;;;5059475;28;20025;-75
2021/10/11 06:02:18;;;;;;;16.27;7.57;;;13.60;99.90;;;;;;5063609;28;20057;-74
2021/10/11 06:04:43;;;;;;;13.45;6.78;;;13.50;99.90;;;;;;5062053;28;20070;-74
2021/10/11 06:07:09;;;;;;;17.98;7.68;;;13.50;99.90;;;;;;5065677;28;20025;-74
2021/10/11 06:09:34;;;;;;;17.63;7.95;;;13.50;99.90;;;;;;5063647;28;20366;-75
2021/10/11 06:12:00;;;;;;;10.23;6.68;;;13.50;99.90;;;;;;5061126;28;20037;-75
2021/10/11 06:14:26;;;;;;;12.38;6.00;;;13.40;99.90;;;;;;5064202;28;20037;-74
2021/10/11 06:16:51;;;;;;;13.13;6.30;;;13.40;99.90;;;;;;5063909;28;20060;-74
2021/10/11 06:19:17;;;;;;;12.23;6.20;;;13.40;99.90;;;;;;5059291;28;20056;-75
2021/10/11 06:21:43;;;;;;;15.73;6.80;;;13.30;99.90;;;;;;5061246;28;20028;-75
2021/10/11 06:24:11;;;;;;;17.65;7.20;;;13.40;99.90;;;;;;5066378;28;20040;-74
2021/10/11 06:26:36;;;;;;;16.85;6.40;;;13.40;99.90;;;;;;5062443;28;20403;-74
2021/10/11 06:29:02;;;;;;;17.23;7.25;;;13.30;99.90;;;;;;5065685;28;20097;-74
2021/10/11 06:31:28;;;;;;;15.52;7.53;;;13.30;99.90;;;;;;5065875;28;20029;-75
2021/10/11 06:33:53;;;;;;;20.40;7.93;;;13.30;99.90;;;;;;5067616;28;20025;-74
2021/10/11 06:36:19;;;;;;;15.75;7.93;;;13.30;99.90;;;;;;5058678;28;20033;-75
2021/10/11 06:38:44;;;;;;;14.00;7.82;;;13.30;99.90;;;;;;5064816;28;20033;-75
2021/10/11 06:41:10;;;;;;;14.18;7.00;;;13.30;99.90;;;;;;5060220;28;20040;-75
2021/10/11 06:43:36;;;;;;;21.33;8.60;;;13.40;99.90;;;;;;5062340;28;20033;-75
2021/10/11 06:46:01;;;;;;;16.98;7.70;;;13.40;99.90;;;;;;5060815;28;20033;-74
2021/10/11 06:48:27;;;;;;;23.50;9.02;;;13.40;99.90;;;;;;5061113;28;20036;-75
2021/10/11 06:50:52;;;;;;;13.02;7.40;;;13.40;99.90;;;;;;5061820;28;20384;-74
2021/10/11 06:53:18;;;;;;;17.38;8.10;;;13.40;99.90;;;;;;5062035;28;20063;-74
2021/10/11 06:55:44;;;;;;;30.45;8.63;;;13.40;99.90;;;;;;5062947;28;20028;-74
2021/10/11 06:58:09;;;;;;;17.98;9.00;;;13.40;99.90;;;;;;5059742;28;20037;-74
2021/10/11 07:00:36;;;;;;;16.80;7.80;;;13.50;99.90;;;;;;5057751;28;20025;-75
2021/10/11 07:03:04;;;;;;;22.23;7.88;;;13.50;99.90;;;;;;5061147;28;20028;-75
2021/10/11 07:05:31;;;;;;;16.55;8.70;;;13.50;99.90;;;;;;5062348;28;20094;-75
2021/10/11 07:07:58;;;;;;;21.20;8.63;;;13.50;99.90;;;;;;5068848;28;20104;-75
2021/10/11 07:10:24;;;;;;;20.75;9.05;;;13.50;99.90;;;;;;5067788;28;20028;-74
2021/10/11 07:12:50;;;;;;;22.17;9.60;;;13.60;99.90;;;;;;5069909;28;20058;-74
2021/10/11 07:15:16;;;;;;;21.98;9.20;;;13.60;99.90;;;;;;5064581;28;20063;-74
2021/10/11 07:17:41;;;;;;;26.00;9.45;;;13.60;99.90;;;;;;5065109;28;20103;-74
2021/10/11 07:20:08;;;;;;;20.42;8.73;;;13.70;99.90;;;;;;5065339;28;20037;-74
2021/10/11 07:22:33;;;;;;;19.42;8.02;;;13.70;99.90;;;;;;5061941;28;20024;-74
2021/10/11 07:24:59;;;;;;;17.23;7.70;;;13.70;99.90;;;;;;5063986;28;20035;-74
2021/10/11 07:27:25;;;;;;;17.02;7.55;;;13.70;99.90;;;;;;5066112;28;20059;-74
2021/10/11 07:29:50;;;;;;;19.40;8.45;;;13.70;99.90;;;;;;5064152;28;20050;-75
2021/10/11 07:32:16;;;;;;;23.30;7.88;;;13.80;99.90;;;;;;5069962;28;20481;-74
2021/10/11 07:34:41;;;;;;;20.65;8.20;;;13.80;99.90;;;;;;5067803;28;20070;-74
2021/10/11 07:37:07;;;;;;;16.55;7.57;;;13.80;99.90;;;;;;5063949;28;20012;-74
2021/10/11 07:39:33;;;;;;;20.50;8.68;;;13.80;99.90;;;;;;5066071;28;20107;-74
2021/10/11 07:42:00;;;;;;;16.25;7.18;;;13.80;99.90;;;;;;5073534;28;20016;-74
2021/10/11 07:44:26;;;;;;;17.60;7.22;;;13.90;99.90;;;;;;5044292;28;20534;-75
2021/10/11 07:46:54;;;;;;;20.05;7.28;;;13.90;99.90;;;;;;5073077;28;20028;-75
2021/10/11 07:49:21;;;;;;;20.40;7.75;;;13.90;99.90;;;;;;5064015;28;20047;-74
2021/10/11 07:51:47;;;;;;;20.65;7.57;;;13.90;99.90;;;;;;5062916;28;20054;-73
2021/10/11 07:54:16;;;;;;;20.35;8.32;;;13.90;99.90;;;;;;5062987;28;20024;-75
2021/10/11 07:56:42;;;;;;;18.23;7.25;;;13.80;99.90;;;;;;5060893;28;20091;-74
2021/10/11 07:59:08;;;;;;;21.20;7.68;;;13.90;99.90;;;;;;5060933;28;20039;-75
2021/10/11 08:01:35;;;;;;;17.80;6.95;;;14.00;99.90;;;;;;5064275;28;20504;-74
2021/10/11 08:04:03;;;;;;;17.05;7.45;;;14.00;99.90;;;;;;5064842;28;20029;-74
2021/10/11 08:06:33;;;;;;;17.48;6.97;;;14.10;99.90;;;;;;5068206;28;20541;-73
2021/10/11 08:08:58;;;;;;;17.25;8.10;;;14.10;99.90;;;;;;5067324;28;20032;-74
2021/10/11 08:11:24;;;;;;;17.05;7.75;;;14.10;99.90;;;;;;5067820;28;20028;-74
2021/10/11 08:13:50;;;;;;;17.52;8.30;;;14.10;99.90;;;;;;5067256;28;20025;-74
2021/10/11 08:16:15;;;;;;;15.52;7.40;;;14.20;99.90;;;;;;5063220;28;20473;-74
2021/10/11 08:18:41;;;;;;;17.80;8.07;;;14.20;99.90;;;;;;5069181;28;20546;-74
2021/10/11 08:21:07;;;;;;;18.77;6.65;;;14.20;99.90;;;;;;5061673;28;20028;-74
2021/10/11 08:23:39;;;;;;;14.75;6.72;;;14.20;99.90;;;;;;5067179;28;20487;-77
2021/10/11 08:26:08;;;;;;;;;;;14.20;99.90;;;;;;5069930;28;20470;-76
2021/10/11 08:28:35;;;;;;;15.30;6.25;;;14.30;99.90;;;;;;5058677;28;19921;-77
2021/10/11 08:31:01;;;;;;;13.98;5.65;;;14.30;99.90;;;;;;5068220;28;20017;-76
2021/10/11 08:33:26;;;;;;;17.17;5.57;;;14.40;99.90;;;;;;5061353;28;20025;-76
2021/10/11 08:35:52;;;;;;;18.42;5.30;;;14.40;99.90;;;;;;5066341;28;20032;-76
2021/10/11 08:38:17;;;;;;;20.67;5.00;;;14.40;99.90;;;;;;5066392;28;20025;-76
2021/10/11 08:40:46;;;;;;;7.80;4.25;;;14.50;99.90;;;;;;5066775;28;20056;-76
2021/10/11 08:43:11;;;;;;;14.10;4.70;;;14.60;99.90;;;;;;5065712;28;20031;-76
2021/10/11 08:45:37;;;;;;;11.80;5.10;;;14.70;99.90;;;;;;5061439;28;20388;-76
2021/10/11 08:48:03;;;;;;;11.07;4.47;;;14.70;99.90;;;;;;5057904;28;20078;-76
2021/10/11 08:50:29;;;;;;;10.40;4.57;;;14.80;99.90;;;;;;5068508;28;20027;-76
2021/10/11 08:52:54;;;;;;;12.05;4.45;;;14.80;99.90;;;;;;5055905;28;20035;-76
2021/10/11 08:55:20;;;;;;;15.60;5.05;;;14.90;99.90;;;;;;5063439;28;20024;-76
2021/10/11 08:57:47;;;;;;;14.93;4.13;;;14.80;99.90;;;;;;5059478;28;20029;-75
2021/10/11 09:00:18;;;;;;;13.43;3.72;;;14.80;99.90;;;;;;5066645;28;20475;-76
2021/10/11 09:02:55;;;;;;;14.40;4.63;;;14.90;99.90;;;;;;5068677;28;20020;-76
2021/10/11 09:05:38;;;;;;;13.48;4.60;;;14.90;99.90;;;;;;5070370;28;20017;-76
2021/10/11 09:08:13;;;;;;;17.95;5.07;;;14.90;99.90;;;;;;5073296;28;20037;-76
2021/10/11 09:10:52;;;;;;;16.48;4.40;;;14.90;99.90;;;;;;5077233;28;20531;-76
2021/10/11 09:13:19;;;;;;;12.10;4.15;;;14.90;99.90;;;;;;5068336;28;20380;-76
2021/10/11 09:15:48;;;;;;;13.73;4.05;;;14.90;99.90;;;;;;5071253;28;20033;-76
2021/10/11 09:18:27;;;;;;;15.93;4.50;;;14.90;99.90;;;;;;5066374;28;20035;-77
2021/10/11 09:20:53;;;;;;;12.73;4.55;;;14.90;99.90;;;;;;5066522;28;20024;-76
2021/10/11 09:23:19;;;;;;;13.00;4.30;;;14.90;99.90;;;;;;5068307;28;20070;-77
2021/10/11 09:25:45;;;;;;;16.05;3.95;;;15.00;99.90;;;;;;5069294;28;20358;-77
2021/10/11 09:28:10;;;;;;;11.43;3.97;;;15.00;99.90;;;;;;5064165;28;20104;-77
2021/10/11 09:30:38;;;;;;;12.05;3.80;;;15.10;99.90;;;;;;5065406;28;20392;-76
2021/10/11 09:33:09;;;;;;;14.00;4.88;;;15.10;99.90;;;;;;5064774;28;20019;-76
2021/10/11 09:35:35;;;;;;;10.88;3.70;;;15.10;99.90;;;;;;5072741;28;20038;-75
2021/10/11 09:38:02;;;;;;;12.52;4.05;;;15.10;99.90;;;;;;5061919;28;20025;-75
2021/10/11 09:40:39;;;;;;;10.57;3.47;;;15.10;99.90;;;;;;5072042;28;20103;-76
2021/10/11 09:43:12;;;;;;;14.80;4.20;;;15.10;99.90;;;;;;5067569;28;20103;-76
2021/10/11 09:45:38;;;;;;;14.05;3.85;;;15.10;99.90;;;;;;5053427;28;20033;-76
2021/10/11 09:48:08;;;;;;;13.90;4.13;;;15.20;99.90;;;;;;5058158;28;20435;-74
2021/10/11 09:50:35;;;;;;;16.23;3.40;;;15.20;99.90;;;;;;5065937;28;20090;-74
2021/10/11 09:53:05;;;;;;;13.90;4.47;;;15.20;99.90;;;;;;5061777;28;20044;-74
2021/10/11 09:55:33;;;;;;;12.15;3.92;;;15.30;99.90;;;;;;5063360;28;20024;-75
2021/10/11 09:58:00;;;;;;;15.55;5.25;;;15.40;99.90;;;;;;5064416;28;20082;-74
2021/10/11 10:00:26;;;;;;;10.63;3.15;;;15.40;99.90;;;;;;5070244;28;20013;-77
2021/10/11 10:02:54;;;;;;;8.35;3.22;;;15.50;99.90;;;;;;5073614;28;20030;-77
2021/10/11 10:05:37;;;;;;;14.70;3.75;;;15.60;99.90;;;;;;5069607;28;20016;-77
2021/10/11 10:08:07;;;;;;;10.23;3.42;;;15.50;99.90;;;;;;5068980;28;20041;-77
2021/10/11 10:10:34;;;;;;;14.27;3.35;;;15.60;99.90;;;;;;5070793;28;20025;-77
2021/10/11 10:13:00;;;;;;;12.05;2.78;;;15.50;99.90;;;;;;5064774;28;20024;-77
2021/10/11 10:15:32;;;;;;;10.00;2.78;;;15.70;99.90;;;;;;5061087;28;20412;-76
2021/10/11 10:18:12;;;;;;;9.65;2.75;;;15.70;99.90;;;;;;5068300;28;20017;-75
2021/10/11 10:20:54;;;;;;;14.13;3.75;;;15.70;99.90;;;;;;5069084;28;20031;-76
2021/10/11 10:23:25;;;;;;;5.65;2.60;;;15.80;99.90;;;;;;5060227;28;20048;-76
2021/10/11 10:25:51;;;;;;;12.30;2.75;;;15.90;99.90;;;;;;5064656;28;20487;-77
2021/10/11 10:28:17;;;;;;;8.20;2.80;;;15.90;99.90;;;;;;5068186;28;20107;-75
2021/10/11 10:30:54;;;;;;;12.10;3.30;;;15.90;99.90;;;;;;5060745;28;20056;-77
2021/10/11 10:33:19;;;;;;;9.52;2.60;;;15.90;99.90;;;;;;5060942;28;20028;-76
2021/10/11 10:35:47;;;;;;;9.80;2.70;;;15.90;99.90;;;;;;5065629;28;20036;-76
2021/10/11 10:38:21;;;;;;;15.50;3.00;;;15.80;99.90;;;;;;5067965;28;20476;-76
2021/10/11 10:40:48;;;;;;;13.85;2.78;;;15.80;99.90;;;;;;5068263;28;20063;-76
2021/10/11 10:43:17;;;;;;;12.82;3.22;;;15.80;99.90;;;;;;5072315;28;20052;-76
2021/10/11 10:45:44;;;;;;;13.10;2.78;;;15.80;99.90;;;;;;5067838;28;20028;-75
2021/10/11 10:48:25;;;;;;;8.75;2.80;;;15.80;99.90;;;;;;5073794;28;20551;-76
2021/10/11 10:50:55;;;;;;;10.80;2.90;;;15.90;99.90;;;;;;5064835;28;20477;-74
2021/10/11 10:53:22;;;;;;;12.32;2.63;;;15.90;99.90;;;;;;5065979;28;20021;-76
2021/10/11 10:55:49;;;;;;;13.32;3.10;;;15.90;99.90;;;;;;5064227;28;20472;-77
2021/10/11 10:58:17;;;;;;;12.80;2.60;;;16.00;99.90;;;;;;5068861;28;20043;-77
2021/10/11 11:00:44;;;;;;;11.40;2.78;;;16.10;99.90;;;;;;5066753;28;20111;-76
2021/10/11 11:03:13;;;;;;;8.38;2.58;;;16.10;99.90;;;;;;5069616;28;20021;-76
2021/10/11 11:05:41;;;;;;;14.75;2.78;;;16.20;99.90;;;;;;5063230;28;20020;-76
2021/10/11 11:08:08;;;;;;;10.40;2.33;;;16.20;99.90;;;;;;5067210;28;20076;-76
2021/10/11 11:10:36;;;;;;;14.55;3.03;;;16.30;99.90;;;;;;5063666;28;20498;-76
2021/10/11 11:13:15;;;;;;;12.43;3.40;;;16.30;99.90;;;;;;5071735;28;20019;-75
2021/10/11 11:15:52;;;;;;;15.35;2.83;;;16.40;99.90;;;;;;5064227;28;20032;-75
2021/10/11 11:18:25;;;;;;;12.60;2.75;;;16.50;99.90;;;;;;5069756;28;20066;-76
2021/10/11 11:20:54;;;;;;;11.90;2.80;;;16.40;99.90;;;;;;5065612;28;20032;-75
2021/10/11 11:23:25;;;;;;;13.18;3.00;;;16.40;99.90;;;;;;5063904;28;20025;-77
2021/10/11 11:25:54;;;;;;;10.43;2.72;;;16.40;99.90;;;;;;5066876;28;20033;-76
2021/10/11 11:28:22;;;;;;;13.10;2.80;;;16.40;99.90;;;;;;5064091;28;20021;-76
2021/10/11 11:30:55;;;;;;;8.85;2.40;;;16.40;99.90;;;;;;5067001;28;20477;-75
2021/10/11 11:33:25;;;;;;;11.60;2.88;;;16.40;99.90;;;;;;5063645;28;20054;-75
2021/10/11 11:35:56;;;;;;;12.73;2.80;;;16.30;99.90;;;;;;5071470;28;20020;-75
2021/10/11 11:38:25;;;;;;;14.52;2.95;;;16.30;99.90;;;;;;5064416;28;20385;-76
2021/10/11 11:40:55;;;;;;;13.85;2.72;;;16.30;99.90;;;;;;5071877;28;20107;-75
2021/10/11 11:43:22;;;;;;;22.15;3.33;;;16.30;99.90;;;;;;5062988;28;20482;-76
2021/10/11 11:45:50;;;;;;;11.85;2.97;;;16.20;99.90;;;;;;5067527;28;20025;-75
2021/10/11 11:48:18;;;;;;;8.77;2.80;;;16.20;99.90;;;;;;5069594;28;20027;-76
2021/10/11 11:50:45;;;;;;;17.77;3.47;;;16.20;99.90;;;;;;5068862;28;20031;-75
2021/10/11 11:53:15;;;;;;;11.52;2.63;;;16.10;99.90;;;;;;5067072;28;20048;-75
2021/10/11 11:55:45;;;;;;;10.10;2.80;;;16.10;99.90;;;;;;5072712;28;20036;-76
2021/10/11 11:58:14;;;;;;;9.55;2.88;;;16.10;99.90;;;;;;5068875;28;20101;-77
2021/10/11 12:00:49;;;;;;;12.75;2.63;;;16.10;99.90;;;;;;5066940;28;20051;-77
2021/10/11 12:03:17;;;;;;;10.85;3.20;;;16.20;99.90;;;;;;5066354;28;20025;-77
2021/10/11 12:05:43;;;;;;;9.32;3.08;;;16.20;99.90;;;;;;5061108;28;20056;-77
2021/10/11 12:08:10;;;;;;;13.52;3.55;;;16.30;99.90;;;;;;5072341;28;20060;-78
2021/10/11 12:10:35;;;;;;;11.63;3.00;;;16.30;99.90;;;;;;5065146;28;20025;-76
2021/10/11 12:13:04;;;;;;;11.20;2.88;;;16.40;99.90;;;;;;5069428;28;20024;-76
2021/10/11 12:15:31;;;;;;;15.00;3.67;;;16.40;99.90;;;;;;5062786;28;20021;-76
2021/10/11 12:18:11;;;;;;;15.43;3.08;;;16.50;99.90;;;;;;5067298;28;20032;-75
2021/10/11 12:20:49;;;;;;;13.15;3.28;;;16.60;99.90;;;;;;5074786;28;20029;-75
2021/10/11 12:23:16;;;;;;;13.05;2.95;;;16.50;99.90;;;;;;5067534;28;20052;-76
2021/10/11 12:25:44;;;;;;;9.32;2.83;;;16.60;99.90;;;;;;5070810;28;20111;-77
2021/10/11 12:28:19;;;;;;;10.45;2.55;;;16.60;99.90;;;;;;5070515;28;20028;-77
2021/10/11 12:30:49;;;;;;;8.52;2.50;;;16.60;99.90;;;;;;5068137;28;20077;-78
2021/10/11 12:33:18;;;;;;;7.03;2.25;;;16.80;99.90;;;;;;5065066;28;20078;-74